Nunobiki Maru — JD3399 — position and weather

sailwx.info

Track history (hours):
 
Tides and Currents Weather Stations Pressure Air Temp Water Temp Dewpoint Dewpoint Depression Visibility Wind Speed Wind Dir Waves Ship Positions

Nunobiki Maru

Last reported at 2018-Feb-18 23:58 UTC. Time now 2018-Feb-19 00:09 UTC.
Position N 34°41' E 135°12'.

Length 34 m; draft 3.8 m.

Type: Tug. MMSI: 431003839.

Date/timePositionNaut miles runAvg speedWind from/ knotsBaromVisibWave heightAir tempDewpointWater temp
2018-Feb-18 23:58N 34°41' E 135°12'0 0.0
2018-Feb-18 23:28N 34°41' E 135°12'0 0.0
2018-Feb-18 22:59N 34°41' E 135°12'0 0.0
2018-Feb-17 05:50N 34°41' E 135°12'0 0.0
2018-Feb-17 05:29N 34°41' E 135°12'0 0.0
2018-Feb-17 04:59N 34°41' E 135°12'0 0.0
2018-Feb-17 04:29N 34°41' E 135°12'0 0.0
2018-Feb-17 03:59N 34°41' E 135°12'0 0.0
2018-Feb-17 03:29N 34°41' E 135°12'0 0.0
2018-Feb-17 02:59N 34°41' E 135°12'0 0.0
2018-Feb-17 02:29N 34°41' E 135°12'0 0.0
2018-Feb-17 01:59N 34°41' E 135°12'0 0.0
2018-Feb-17 01:29N 34°41' E 135°12'0 0.0
2018-Feb-17 00:59N 34°41' E 135°12'0 0.0
2018-Feb-17 00:29N 34°41' E 135°12'0 0.0
2018-Feb-16 23:59N 34°41' E 135°12'0 0.0
2018-Feb-16 23:29N 34°41' E 135°12'3 6.1
2018-Feb-16 23:01N 34°41' E 135°16'0 0.2
2018-Feb-16 22:30N 34°41' E 135°16'2 3.7
2018-Feb-16 22:00N 34°40' E 135°18'2 4.3
2018-Feb-16 21:30N 34°41' E 135°15'3 5.4
2018-Feb-16 21:00N 34°41' E 135°12'0 0.0
2018-Feb-16 20:30N 34°41' E 135°12'0 0.0
2018-Feb-16 08:25N 34°41' E 135°12'2 3.9
2018-Feb-16 08:00N 34°41' E 135°14'1 1.8
2018-Feb-16 07:30N 34°41' E 135°13'1 1.5
2018-Feb-16 07:00N 34°41' E 135°12'0 0.0
2018-Feb-16 06:30N 34°41' E 135°12'0 0.0
2018-Feb-16 06:00N 34°41' E 135°12'0 0.0
2018-Feb-16 05:30N 34°41' E 135°12'0 0.0
2018-Feb-16 05:00N 34°41' E 135°12'0 0.0
2018-Feb-16 04:30N 34°41' E 135°12'0 0.0
2018-Feb-16 04:00N 34°41' E 135°12'0 0.0
2018-Feb-16 03:30N 34°41' E 135°12'0 0.0
2018-Feb-16 03:00N 34°41' E 135°12'0 0.0
2018-Feb-16 02:30N 34°41' E 135°12'0 0.0
2018-Feb-16 02:00N 34°41' E 135°12'0 0.0
2018-Feb-16 01:30N 34°41' E 135°12'0 0.0
2018-Feb-16 01:00N 34°41' E 135°12'0 0.0
2018-Feb-16 00:30N 34°41' E 135°12'0 0.0
2018-Feb-16 00:00N 34°41' E 135°12'0 0.0
2018-Feb-15 23:30N 34°41' E 135°12'1 2.5
2018-Feb-15 23:00N 34°41' E 135°14'2 3.8
2018-Feb-15 22:30N 34°39' E 135°15'1 1.5
2018-Feb-15 22:00N 34°39' E 135°16'1 1.5
2018-Feb-15 21:30N 34°39' E 135°15'0 0.0
2018-Feb-15 21:00N 34°39' E 135°15'0 0.0
2018-Feb-15 20:30N 34°39' E 135°15'0 0.0
2018-Feb-15 20:00N 34°39' E 135°15'0 0.0
2018-Feb-15 19:30N 34°39' E 135°15'0 0.4
2018-Feb-15 19:00N 34°39' E 135°15'2 3.5
2018-Feb-15 18:31N 34°41' E 135°15'1 1.3
2018-Feb-15 18:00N 34°42' E 135°15'0 0.0
2018-Feb-15 17:30N 34°42' E 135°15'0 0.0
2018-Feb-15 17:00N 34°42' E 135°15'0 0.0
2018-Feb-15 16:30N 34°42' E 135°15'0 0.0
2018-Feb-15 16:00N 34°42' E 135°15'0 0.2
2018-Feb-15 15:31N 34°42' E 135°15'0 0.0
2018-Feb-15 15:00N 34°42' E 135°15'0 0.0
2018-Feb-15 14:30N 34°42' E 135°15'0 0.0
2018-Feb-15 14:00N 34°42' E 135°15'0 0.0
2018-Feb-15 13:30N 34°42' E 135°15'0 0.0
2018-Feb-15 13:00N 34°42' E 135°15'0 0.0
2018-Feb-15 12:30N 34°42' E 135°15'0 0.0
2018-Feb-15 12:00N 34°42' E 135°15'2 3.5
2018-Feb-15 11:30N 34°41' E 135°17'0 0.2
2018-Feb-15 11:00N 34°41' E 135°17'1 1.5
2018-Feb-15 10:30N 34°41' E 135°16'3 5.3
2018-Feb-15 10:00N 34°40' E 135°13'0 0.0
2018-Feb-15 09:30N 34°40' E 135°13'0 0.0
2018-Feb-15 09:00N 34°40' E 135°13'0 0.0
2018-Feb-15 08:31N 34°40' E 135°13'4 7.2
2018-Feb-15 08:00N 34°41' E 135°17'0 0.1
2018-Feb-15 07:30N 34°41' E 135°17'1 1.3
2018-Feb-15 07:01N 34°40' E 135°18'1 1.5
2018-Feb-15 06:31N 34°41' E 135°17'4 7.6
2018-Feb-15 06:01N 34°41' E 135°13'0 0.9
2018-Feb-15 05:30N 34°41' E 135°12'0 0.0
2018-Feb-15 05:00N 34°41' E 135°12'0 0.0
2018-Feb-15 04:30N 34°41' E 135°12'0 0.0
2018-Feb-15 04:00N 34°41' E 135°12'0 0.0
2018-Feb-15 03:30N 34°41' E 135°12'0 0.0
2018-Feb-15 03:00N 34°41' E 135°12'0 0.0
2018-Feb-15 02:30N 34°41' E 135°12'0 0.0
2018-Feb-15 01:59N 34°41' E 135°12'0 0.0
2018-Feb-15 01:29N 34°41' E 135°12'0 0.0
2018-Feb-15 01:00N 34°41' E 135°12'0 0.0
2018-Feb-15 00:30N 34°41' E 135°12'0 0.0
2018-Feb-15 00:00N 34°41' E 135°12'0 0.0
2018-Feb-14 23:30N 34°41' E 135°12'1 1.9
2018-Feb-14 23:00N 34°41' E 135°13'4 7.5
2018-Feb-14 22:30N 34°42' E 135°18'0 0.5
2018-Feb-14 22:00N 34°42' E 135°17'0 0.9
2018-Feb-14 21:31N 34°42' E 135°17'4 7.9
2018-Feb-14 21:01N 34°41' E 135°12'0 0.2
2018-Feb-14 20:30N 34°41' E 135°12'0 0.0
2018-Feb-14 04:43N 34°41' E 135°12'1 5.3
2018-Feb-14 04:30N 34°41' E 135°13'1 2.5
2018-Feb-14 04:01N 34°42' E 135°15'1 2.1
2018-Feb-14 03:30N 34°41' E 135°15'2 4.1
2018-Feb-14 02:58N 34°41' E 135°12'0 0.0
2018-Feb-14 02:28N 34°41' E 135°12'0 0.0
2018-Feb-14 01:58N 34°41' E 135°12'0 0.0
2018-Feb-14 01:28N 34°41' E 135°12'0 0.0
2018-Feb-14 00:58N 34°41' E 135°12'0 0.0
2018-Feb-14 00:28N 34°41' E 135°12'0 0.0
2018-Feb-13 23:58N 34°41' E 135°12'0 0.0
2018-Feb-13 23:24N 34°41' E 135°12'2 5.0
2018-Feb-13 23:00N 34°40' E 135°14'1 1.4
2018-Feb-13 22:30N 34°40' E 135°15'1 2.0
2018-Feb-13 22:00N 34°39' E 135°15'2 3.4
2018-Feb-13 21:30N 34°40' E 135°15'2 4.3
2018-Feb-13 21:00N 34°41' E 135°12'0 0.0
2018-Feb-13 12:50N 34°41' E 135°12'3 7.8
2018-Feb-13 12:30N 34°41' E 135°15'0 0.8
2018-Feb-13 12:00N 34°41' E 135°15'1 2.3
2018-Feb-13 11:30N 34°40' E 135°16'0 0.5
2018-Feb-13 11:00N 34°40' E 135°16'1 2.7
2018-Feb-13 10:30N 34°40' E 135°14'0 0.0
2018-Feb-13 10:00N 34°40' E 135°14'0 0.0
2018-Feb-13 09:30N 34°40' E 135°14'0 0.0
2018-Feb-13 09:00N 34°40' E 135°14'0 0.0
2018-Feb-13 08:30N 34°40' E 135°14'0 0.0
2018-Feb-13 08:00N 34°40' E 135°14'1 2.7
2018-Feb-13 07:30N 34°41' E 135°13'0 0.2
2018-Feb-13 07:00N 34°41' E 135°13'2 3.5
2018-Feb-13 06:30N 34°40' E 135°14'0 0.0
2018-Feb-13 06:00N 34°40' E 135°14'0 0.0
2018-Feb-13 05:30N 34°40' E 135°14'0 0.0
2018-Feb-13 05:00N 34°40' E 135°14'0 0.7
2018-Feb-13 04:30N 34°40' E 135°14'1 2.0
2018-Feb-13 04:00N 34°40' E 135°15'1 1.9
2018-Feb-13 03:31N 34°41' E 135°14'1 2.3
2018-Feb-13 03:00N 34°40' E 135°15'1 1.5
2018-Feb-13 02:31N 34°40' E 135°14'0 0.9
2018-Feb-13 01:58N 34°40' E 135°14'0 0.0
2018-Feb-13 01:28N 34°40' E 135°14'0 0.0
2018-Feb-13 00:58N 34°40' E 135°14'0 0.0
2018-Feb-13 00:28N 34°40' E 135°14'0 0.0
2018-Feb-12 23:58N 34°40' E 135°14'0 0.0
2018-Feb-12 23:28N 34°40' E 135°14'1 3.0
2018-Feb-12 23:00N 34°41' E 135°13'0 0.9
2018-Feb-12 22:30N 34°41' E 135°13'2 3.6
2018-Feb-12 22:00N 34°40' E 135°15'3 5.4
2018-Feb-12 21:30N 34°41' E 135°12'0 0.0
2018-Feb-12 21:00N 34°41' E 135°12'0 0.0
2018-Feb-12 05:36N 34°41' E 135°12'0 0.0
2018-Feb-12 05:30N 34°41' E 135°12'0 0.0
2018-Feb-12 05:00N 34°41' E 135°12'0 0.0
2018-Feb-12 04:30N 34°41' E 135°12'0 0.0
2018-Feb-12 04:00N 34°41' E 135°12'0 0.0
2018-Feb-12 03:30N 34°41' E 135°12'0 0.0
2018-Feb-12 03:00N 34°41' E 135°12'0 0.0
2018-Feb-12 02:30N 34°41' E 135°12'0 0.0
2018-Feb-12 02:00N 34°41' E 135°12'0 0.0
2018-Feb-12 01:30N 34°41' E 135°12'0 0.0
2018-Feb-12 01:00N 34°41' E 135°12'0 0.0
2018-Feb-12 00:30N 34°41' E 135°12'0 0.0
2018-Feb-12 00:00N 34°41' E 135°12'0 0.0
2018-Feb-11 23:30N 34°41' E 135°12'2 4.3
2018-Feb-11 23:00N 34°40' E 135°14'0 0.5
2018-Feb-11 22:31N 34°40' E 135°14'1 2.7
2018-Feb-11 22:00N 34°39' E 135°16'2 3.8
2018-Feb-11 21:30N 34°41' E 135°14'2 3.4
2018-Feb-11 21:00N 34°41' E 135°12'0 0.0
2018-Feb-11 06:22N 34°41' E 135°12'2 6.7
2018-Feb-11 06:00N 34°41' E 135°15'0 0.2
2018-Feb-11 05:30N 34°41' E 135°15'3 4.8
2018-Feb-11 04:58N 34°41' E 135°12'0 0.0
2018-Feb-11 04:28N 34°41' E 135°12'0 0.0
2018-Feb-11 03:58N 34°41' E 135°12'0 0.0
2018-Feb-11 03:28N 34°41' E 135°12'0 0.0
2018-Feb-11 02:58N 34°41' E 135°12'0 0.0
2018-Feb-11 02:28N 34°41' E 135°12'0 0.0
2018-Feb-11 01:58N 34°41' E 135°12'0 0.0
2018-Feb-11 01:28N 34°41' E 135°12'0 0.0
2018-Feb-11 00:58N 34°41' E 135°12'0 0.0
2018-Feb-11 00:28N 34°41' E 135°12'0 0.0
2018-Feb-10 23:58N 34°41' E 135°12'0 0.0
2018-Feb-10 23:28N 34°41' E 135°12'4 7.7
2018-Feb-10 23:00N 34°41' E 135°16'1 2.1
2018-Feb-10 22:30N 34°41' E 135°18'0 0.9
2018-Feb-10 22:00N 34°40' E 135°18'4 8.3
2018-Feb-10 21:30N 34°41' E 135°13'1 1.3
2018-Feb-10 21:00N 34°41' E 135°12'0 0.0
2018-Feb-10 20:30N 34°41' E 135°12'  
Track history (hours):
 
Tides and Currents Weather Stations Pressure Air Temp Water Temp Dewpoint Dewpoint Depression Visibility Wind Speed Wind Dir Waves Ship Positions

Nunobiki Maru

Last reported at 2018-Feb-18 23:58 UTC. Time now 2018-Feb-19 00:09 UTC.
Position N 34°41' E 135°12'.

Length 34 m; draft 3.8 m.

Type: Tug. MMSI: 431003839.

Date/timePositionNaut miles runAvg speedWind from/ knotsBaromVisibWave heightAir tempDewpointWater temp
2018-Feb-18 23:58N 34°41' E 135°12'0 0.0
2018-Feb-18 23:28N 34°41' E 135°12'0 0.0
2018-Feb-18 22:59N 34°41' E 135°12'0 0.0
2018-Feb-17 05:50N 34°41' E 135°12'0 0.0
2018-Feb-17 05:29N 34°41' E 135°12'0 0.0
2018-Feb-17 04:59N 34°41' E 135°12'0 0.0
2018-Feb-17 04:29N 34°41' E 135°12'0 0.0
2018-Feb-17 03:59N 34°41' E 135°12'0 0.0
2018-Feb-17 03:29N 34°41' E 135°12'0 0.0
2018-Feb-17 02:59N 34°41' E 135°12'0 0.0
2018-Feb-17 02:29N 34°41' E 135°12'0 0.0
2018-Feb-17 01:59N 34°41' E 135°12'0 0.0
2018-Feb-17 01:29N 34°41' E 135°12'0 0.0
2018-Feb-17 00:59N 34°41' E 135°12'0 0.0
2018-Feb-17 00:29N 34°41' E 135°12'0 0.0
2018-Feb-16 23:59N 34°41' E 135°12'0 0.0
2018-Feb-16 23:29N 34°41' E 135°12'3 6.1
2018-Feb-16 23:01N 34°41' E 135°16'0 0.2
2018-Feb-16 22:30N 34°41' E 135°16'2 3.7
2018-Feb-16 22:00N 34°40' E 135°18'2 4.3
2018-Feb-16 21:30N 34°41' E 135°15'3 5.4
2018-Feb-16 21:00N 34°41' E 135°12'0 0.0
2018-Feb-16 20:30N 34°41' E 135°12'0 0.0
2018-Feb-16 08:25N 34°41' E 135°12'2 3.9
2018-Feb-16 08:00N 34°41' E 135°14'1 1.8
2018-Feb-16 07:30N 34°41' E 135°13'1 1.5
2018-Feb-16 07:00N 34°41' E 135°12'0 0.0
2018-Feb-16 06:30N 34°41' E 135°12'0 0.0
2018-Feb-16 06:00N 34°41' E 135°12'0 0.0
2018-Feb-16 05:30N 34°41' E 135°12'0 0.0
2018-Feb-16 05:00N 34°41' E 135°12'0 0.0
2018-Feb-16 04:30N 34°41' E 135°12'0 0.0
2018-Feb-16 04:00N 34°41' E 135°12'0 0.0
2018-Feb-16 03:30N 34°41' E 135°12'0 0.0
2018-Feb-16 03:00N 34°41' E 135°12'0 0.0
2018-Feb-16 02:30N 34°41' E 135°12'0 0.0
2018-Feb-16 02:00N 34°41' E 135°12'0 0.0
2018-Feb-16 01:30N 34°41' E 135°12'0 0.0
2018-Feb-16 01:00N 34°41' E 135°12'0 0.0
2018-Feb-16 00:30N 34°41' E 135°12'0 0.0
2018-Feb-16 00:00N 34°41' E 135°12'0 0.0
2018-Feb-15 23:30N 34°41' E 135°12'1 2.5
2018-Feb-15 23:00N 34°41' E 135°14'2 3.8
2018-Feb-15 22:30N 34°39' E 135°15'1 1.5
2018-Feb-15 22:00N 34°39' E 135°16'1 1.5
2018-Feb-15 21:30N 34°39' E 135°15'0 0.0
2018-Feb-15 21:00N 34°39' E 135°15'0 0.0
2018-Feb-15 20:30N 34°39' E 135°15'0 0.0
2018-Feb-15 20:00N 34°39' E 135°15'0 0.0
2018-Feb-15 19:30N 34°39' E 135°15'0 0.4
2018-Feb-15 19:00N 34°39' E 135°15'2 3.5
2018-Feb-15 18:31N 34°41' E 135°15'1 1.3
2018-Feb-15 18:00N 34°42' E 135°15'0 0.0
2018-Feb-15 17:30N 34°42' E 135°15'0 0.0
2018-Feb-15 17:00N 34°42' E 135°15'0 0.0
2018-Feb-15 16:30N 34°42' E 135°15'0 0.0
2018-Feb-15 16:00N 34°42' E 135°15'0 0.2
2018-Feb-15 15:31N 34°42' E 135°15'0 0.0
2018-Feb-15 15:00N 34°42' E 135°15'0 0.0
2018-Feb-15 14:30N 34°42' E 135°15'0 0.0
2018-Feb-15 14:00N 34°42' E 135°15'0 0.0
2018-Feb-15 13:30N 34°42' E 135°15'0 0.0
2018-Feb-15 13:00N 34°42' E 135°15'0 0.0
2018-Feb-15 12:30N 34°42' E 135°15'0 0.0
2018-Feb-15 12:00N 34°42' E 135°15'2 3.5
2018-Feb-15 11:30N 34°41' E 135°17'0 0.2
2018-Feb-15 11:00N 34°41' E 135°17'1 1.5
2018-Feb-15 10:30N 34°41' E 135°16'3 5.3
2018-Feb-15 10:00N 34°40' E 135°13'0 0.0
2018-Feb-15 09:30N 34°40' E 135°13'0 0.0
2018-Feb-15 09:00N 34°40' E 135°13'0 0.0
2018-Feb-15 08:31N 34°40' E 135°13'4 7.2
2018-Feb-15 08:00N 34°41' E 135°17'0 0.1
2018-Feb-15 07:30N 34°41' E 135°17'1 1.3
2018-Feb-15 07:01N 34°40' E 135°18'1 1.5
2018-Feb-15 06:31N 34°41' E 135°17'4 7.6
2018-Feb-15 06:01N 34°41' E 135°13'0 0.9
2018-Feb-15 05:30N 34°41' E 135°12'0 0.0
2018-Feb-15 05:00N 34°41' E 135°12'0 0.0
2018-Feb-15 04:30N 34°41' E 135°12'0 0.0
2018-Feb-15 04:00N 34°41' E 135°12'0 0.0
2018-Feb-15 03:30N 34°41' E 135°12'0 0.0
2018-Feb-15 03:00N 34°41' E 135°12'0 0.0
2018-Feb-15 02:30N 34°41' E 135°12'0 0.0
2018-Feb-15 01:59N 34°41' E 135°12'0 0.0
2018-Feb-15 01:29N 34°41' E 135°12'0 0.0
2018-Feb-15 01:00N 34°41' E 135°12'0 0.0
2018-Feb-15 00:30N 34°41' E 135°12'0 0.0
2018-Feb-15 00:00N 34°41' E 135°12'0 0.0
2018-Feb-14 23:30N 34°41' E 135°12'1 1.9
2018-Feb-14 23:00N 34°41' E 135°13'4 7.5
2018-Feb-14 22:30N 34°42' E 135°18'0 0.5
2018-Feb-14 22:00N 34°42' E 135°17'0 0.9
2018-Feb-14 21:31N 34°42' E 135°17'4 7.9
2018-Feb-14 21:01N 34°41' E 135°12'0 0.2
2018-Feb-14 20:30N 34°41' E 135°12'0 0.0
2018-Feb-14 04:43N 34°41' E 135°12'1 5.3
2018-Feb-14 04:30N 34°41' E 135°13'1 2.5
2018-Feb-14 04:01N 34°42' E 135°15'1 2.1
2018-Feb-14 03:30N 34°41' E 135°15'2 4.1
2018-Feb-14 02:58N 34°41' E 135°12'0 0.0
2018-Feb-14 02:28N 34°41' E 135°12'0 0.0
2018-Feb-14 01:58N 34°41' E 135°12'0 0.0
2018-Feb-14 01:28N 34°41' E 135°12'0 0.0
2018-Feb-14 00:58N 34°41' E 135°12'0 0.0
2018-Feb-14 00:28N 34°41' E 135°12'0 0.0
2018-Feb-13 23:58N 34°41' E 135°12'0 0.0
2018-Feb-13 23:24N 34°41' E 135°12'2 5.0
2018-Feb-13 23:00N 34°40' E 135°14'1 1.4
2018-Feb-13 22:30N 34°40' E 135°15'1 2.0
2018-Feb-13 22:00N 34°39' E 135°15'2 3.4
2018-Feb-13 21:30N 34°40' E 135°15'2 4.3
2018-Feb-13 21:00N 34°41' E 135°12'0 0.0
2018-Feb-13 12:50N 34°41' E 135°12'3 7.8
2018-Feb-13 12:30N 34°41' E 135°15'0 0.8
2018-Feb-13 12:00N 34°41' E 135°15'1 2.3
2018-Feb-13 11:30N 34°40' E 135°16'0 0.5
2018-Feb-13 11:00N 34°40' E 135°16'1 2.7
2018-Feb-13 10:30N 34°40' E 135°14'0 0.0
2018-Feb-13 10:00N 34°40' E 135°14'0 0.0
2018-Feb-13 09:30N 34°40' E 135°14'0 0.0
2018-Feb-13 09:00N 34°40' E 135°14'0 0.0
2018-Feb-13 08:30N 34°40' E 135°14'0 0.0
2018-Feb-13 08:00N 34°40' E 135°14'1 2.7
2018-Feb-13 07:30N 34°41' E 135°13'0 0.2
2018-Feb-13 07:00N 34°41' E 135°13'2 3.5
2018-Feb-13 06:30N 34°40' E 135°14'0 0.0
2018-Feb-13 06:00N 34°40' E 135°14'0 0.0
2018-Feb-13 05:30N 34°40' E 135°14'0 0.0
2018-Feb-13 05:00N 34°40' E 135°14'0 0.7
2018-Feb-13 04:30N 34°40' E 135°14'1 2.0
2018-Feb-13 04:00N 34°40' E 135°15'1 1.9
2018-Feb-13 03:31N 34°41' E 135°14'1 2.3
2018-Feb-13 03:00N 34°40' E 135°15'1 1.5
2018-Feb-13 02:31N 34°40' E 135°14'0 0.9
2018-Feb-13 01:58N 34°40' E 135°14'0 0.0
2018-Feb-13 01:28N 34°40' E 135°14'0 0.0
2018-Feb-13 00:58N 34°40' E 135°14'0 0.0
2018-Feb-13 00:28N 34°40' E 135°14'0 0.0
2018-Feb-12 23:58N 34°40' E 135°14'0 0.0
2018-Feb-12 23:28N 34°40' E 135°14'1 3.0
2018-Feb-12 23:00N 34°41' E 135°13'0 0.9
2018-Feb-12 22:30N 34°41' E 135°13'2 3.6
2018-Feb-12 22:00N 34°40' E 135°15'3 5.4
2018-Feb-12 21:30N 34°41' E 135°12'0 0.0
2018-Feb-12 21:00N 34°41' E 135°12'0 0.0
2018-Feb-12 05:36N 34°41' E 135°12'0 0.0
2018-Feb-12 05:30N 34°41' E 135°12'0 0.0
2018-Feb-12 05:00N 34°41' E 135°12'0 0.0
2018-Feb-12 04:30N 34°41' E 135°12'0 0.0
2018-Feb-12 04:00N 34°41' E 135°12'0 0.0
2018-Feb-12 03:30N 34°41' E 135°12'0 0.0
2018-Feb-12 03:00N 34°41' E 135°12'0 0.0
2018-Feb-12 02:30N 34°41' E 135°12'0 0.0
2018-Feb-12 02:00N 34°41' E 135°12'0 0.0
2018-Feb-12 01:30N 34°41' E 135°12'0 0.0
2018-Feb-12 01:00N 34°41' E 135°12'0 0.0
2018-Feb-12 00:30N 34°41' E 135°12'0 0.0
2018-Feb-12 00:00N 34°41' E 135°12'0 0.0
2018-Feb-11 23:30N 34°41' E 135°12'2 4.3
2018-Feb-11 23:00N 34°40' E 135°14'0 0.5
2018-Feb-11 22:31N 34°40' E 135°14'1 2.7
2018-Feb-11 22:00N 34°39' E 135°16'2 3.8
2018-Feb-11 21:30N 34°41' E 135°14'2 3.4
2018-Feb-11 21:00N 34°41' E 135°12'0 0.0
2018-Feb-11 06:22N 34°41' E 135°12'2 6.7
2018-Feb-11 06:00N 34°41' E 135°15'0 0.2
2018-Feb-11 05:30N 34°41' E 135°15'3 4.8
2018-Feb-11 04:58N 34°41' E 135°12'0 0.0
2018-Feb-11 04:28N 34°41' E 135°12'0 0.0
2018-Feb-11 03:58N 34°41' E 135°12'0 0.0
2018-Feb-11 03:28N 34°41' E 135°12'0 0.0
2018-Feb-11 02:58N 34°41' E 135°12'0 0.0
2018-Feb-11 02:28N 34°41' E 135°12'0 0.0
2018-Feb-11 01:58N 34°41' E 135°12'0 0.0
2018-Feb-11 01:28N 34°41' E 135°12'0 0.0
2018-Feb-11 00:58N 34°41' E 135°12'0 0.0
2018-Feb-11 00:28N 34°41' E 135°12'0 0.0
2018-Feb-10 23:58N 34°41' E 135°12'0 0.0
2018-Feb-10 23:28N 34°41' E 135°12'4 7.7
2018-Feb-10 23:00N 34°41' E 135°16'1 2.1
2018-Feb-10 22:30N 34°41' E 135°18'0 0.9
2018-Feb-10 22:00N 34°40' E 135°18'4 8.3
2018-Feb-10 21:30N 34°41' E 135°13'1 1.3
2018-Feb-10 21:00N 34°41' E 135°12'0 0.0
2018-Feb-10 20:30N 34°41' E 135°12'  

Dump ship's entire track history